Time;durP1;ratioP1;P1;durP2;ratioP2;P2;SDS_P1;SDS_P2;PMS_P1;PMS_P2;Temp;Humidity;BMP_temperature;BMP_pressure;BME280_temperature;BME280_humidity;BME280_pressure;Samples;Min_cycle;Max_cycle;Signal;HPM_P1;HPM_P2
2024/01/21 00:00:35;;;;;;;9.20;3.88;;;-5.40;99.90;;;;;;4982539;28;20335;-52
2024/01/21 00:03:03;;;;;;;8.57;4.13;;;-5.40;99.90;;;;;;4971019;28;20054;-51
2024/01/21 00:05:30;;;;;;;8.88;3.95;;;-5.40;99.90;;;;;;4972898;28;20073;-51
2024/01/21 00:07:56;;;;;;;9.88;3.55;;;-5.40;99.90;;;;;;4974757;28;20485;-51
2024/01/21 00:10:23;;;;;;;6.38;3.35;;;-5.50;99.90;;;;;;4973526;28;20120;-52
2024/01/21 00:12:50;;;;;;;9.30;3.55;;;-5.60;99.90;;;;;;4977445;28;20034;-54
2024/01/21 00:15:17;;;;;;;8.95;3.67;;;-5.70;99.90;;;;;;4981210;28;20106;-53
2024/01/21 00:17:43;;;;;;;12.60;4.30;;;-5.60;99.90;;;;;;4981722;28;20163;-51
2024/01/21 00:20:11;;;;;;;8.25;3.80;;;-5.60;99.90;;;;;;4955042;28;20043;-55
2024/01/21 00:22:40;;;;;;;;;;;-5.70;99.90;;;;;;4967143;28;20039;-53
2024/01/21 00:25:09;;;;;;;6.28;2.45;;;-5.70;99.90;;;;;;4972401;28;19922;-52
2024/01/21 00:27:37;;;;;;;5.40;2.78;;;-5.80;99.90;;;;;;4972099;28;20131;-51
2024/01/21 00:30:05;;;;;;;8.73;3.33;;;-5.80;99.90;;;;;;4972339;28;20125;-52
2024/01/21 00:32:32;;;;;;;7.18;3.08;;;-5.70;99.90;;;;;;4968974;28;20145;-51
2024/01/21 00:34:59;;;;;;;6.28;2.92;;;-5.70;99.90;;;;;;4967949;28;20653;-51
2024/01/21 00:37:25;;;;;;;5.82;2.92;;;-5.70;99.90;;;;;;4968696;28;20488;-53
2024/01/21 00:39:52;;;;;;;8.77;2.90;;;-5.80;99.90;;;;;;4972591;28;20038;-52
2024/01/21 00:42:19;;;;;;;;;;;-5.80;99.90;;;;;;4964668;28;20043;-53
2024/01/21 00:44:46;;;;;;;7.47;2.30;;;-5.70;99.90;;;;;;4967786;28;19926;-51
2024/01/21 00:47:13;;;;;;;6.18;3.28;;;-5.70;99.90;;;;;;4960365;28;20058;-51
2024/01/21 00:49:41;;;;;;;7.32;3.80;;;-5.70;99.90;;;;;;4967901;28;20047;-53
2024/01/21 00:52:08;;;;;;;8.63;2.88;;;-5.60;99.90;;;;;;4970611;28;20102;-55
2024/01/21 00:54:35;;;;;;;7.72;3.65;;;-5.70;99.90;;;;;;4971636;28;20049;-53
2024/01/21 00:57:03;;;;;;;6.50;3.40;;;-5.60;99.90;;;;;;4972188;28;20045;-52
2024/01/21 00:59:29;;;;;;;11.20;3.20;;;-5.60;99.90;;;;;;4977982;28;20060;-52
2024/01/21 01:01:56;;;;;;;8.52;3.90;;;-5.70;99.90;;;;;;4953610;28;20065;-54
2024/01/21 01:04:23;;;;;;;10.82;4.68;;;-5.70;99.90;;;;;;4971263;28;20053;-51
2024/01/21 01:06:50;;;;;;;;;;;-5.70;99.90;;;;;;4946576;28;20043;-54
2024/01/21 01:09:17;;;;;;;7.18;3.60;;;-5.80;99.90;;;;;;4968433;28;19922;-52
2024/01/21 01:11:44;;;;;;;6.28;3.08;;;-5.90;99.90;;;;;;4970888;28;20408;-52
2024/01/21 01:14:11;;;;;;;8.73;3.75;;;-5.90;99.90;;;;;;4959529;28;20047;-52
2024/01/21 01:16:38;;;;;;;7.20;3.17;;;-5.90;99.90;;;;;;4962848;28;20045;-51
2024/01/21 01:19:06;;;;;;;10.13;3.75;;;-5.80;99.90;;;;;;4971674;28;20054;-51
2024/01/21 01:21:33;;;;;;;11.68;3.88;;;-5.80;99.90;;;;;;4979257;28;20039;-51
2024/01/21 01:24:01;;;;;;;7.38;3.22;;;-5.80;99.90;;;;;;4971626;28;20043;-51
2024/01/21 01:26:27;;;;;;;9.32;3.92;;;-5.80;99.90;;;;;;4966394;28;20112;-53
2024/01/21 01:28:54;;;;;;;8.77;3.38;;;-5.80;99.90;;;;;;4970064;28;20047;-53
2024/01/21 01:31:21;;;;;;;12.30;4.00;;;-5.80;99.90;;;;;;4970799;28;20040;-52
2024/01/21 01:33:48;;;;;;;7.30;2.88;;;-5.80;99.90;;;;;;4970614;28;20038;-51
2024/01/21 01:36:15;;;;;;;5.30;2.50;;;-5.80;99.90;;;;;;4972887;28;20057;-53
2024/01/21 01:38:42;;;;;;;7.65;3.10;;;-5.90;99.90;;;;;;4970000;28;20592;-53
2024/01/21 01:41:09;;;;;;;7.35;3.08;;;-5.80;99.90;;;;;;4977685;28;20074;-51
2024/01/21 01:43:36;;;;;;;8.80;2.88;;;-5.80;99.90;;;;;;4966610;28;20051;-52
2024/01/21 01:46:06;;;;;;;9.23;2.50;;;-5.80;99.90;;;;;;4976152;28;20152;-53
2024/01/21 01:48:33;;;;;;;8.18;3.13;;;-5.80;99.90;;;;;;4961586;28;20139;-51
2024/01/21 01:51:00;;;;;;;;;;;-5.80;99.90;;;;;;4972030;28;20043;-53
2024/01/21 01:53:29;;;;;;;9.40;2.90;;;-5.70;99.90;;;;;;4975027;28;19922;-52
2024/01/21 01:55:57;;;;;;;6.72;2.55;;;-5.70;99.90;;;;;;4945216;28;20050;-52
2024/01/21 01:58:27;;;;;;;6.15;3.38;;;-5.70;99.90;;;;;;4972266;28;20062;-54
2024/01/21 02:00:54;;;;;;;8.57;3.35;;;-5.70;99.90;;;;;;4974696;28;20067;-54
2024/01/21 02:03:23;;;;;;;9.85;3.17;;;-5.70;99.90;;;;;;4978733;28;20133;-54
2024/01/21 02:05:50;;;;;;;4.82;2.42;;;-5.70;99.90;;;;;;4968090;28;20039;-52
2024/01/21 02:08:17;;;;;;;6.30;2.88;;;-5.80;99.90;;;;;;4979763;28;20596;-53
2024/01/21 02:10:44;;;;;;;6.70;2.78;;;-5.80;99.90;;;;;;4979287;28;20042;-51
2024/01/21 02:13:11;;;;;;;;;;;-5.90;99.90;;;;;;4959897;28;20050;-54
2024/01/21 02:15:38;;;;;;;6.32;3.15;;;-5.90;99.90;;;;;;4976005;28;19996;-54
2024/01/21 02:18:05;;;;;;;6.05;3.15;;;-5.90;99.90;;;;;;4974772;28;20126;-53
2024/01/21 02:20:33;;;;;;;8.63;3.08;;;-5.90;99.90;;;;;;4976983;28;20081;-53
2024/01/21 02:23:00;;;;;;;9.90;3.10;;;-5.90;99.90;;;;;;4976340;28;20070;-53
2024/01/21 02:25:27;;;;;;;7.60;2.80;;;-5.90;99.90;;;;;;4963692;28;20049;-52
2024/01/21 02:27:54;;;;;;;6.82;3.35;;;-5.90;99.90;;;;;;4957078;28;20047;-54
2024/01/21 02:30:20;;;;;;;16.85;3.08;;;-5.90;99.90;;;;;;4974044;28;20039;-51
2024/01/21 02:32:47;;;;;;;5.32;2.80;;;-5.90;99.90;;;;;;4968701;28;20122;-52
2024/01/21 02:39:14;;;;;;;7.53;2.78;;;-6.00;99.90;;;;;;4978947;28;20513;-51
2024/01/21 02:41:41;;;;;;;4.30;2.40;;;-6.00;99.90;;;;;;4975318;28;20466;-52
2024/01/21 02:44:08;;;;;;;;;;;-6.00;99.90;;;;;;4974850;28;20122;-54
2024/01/21 02:46:35;;;;;;;3.83;2.35;;;-6.00;99.90;;;;;;4972817;28;20391;-52
2024/01/21 02:49:01;;;;;;;7.80;2.38;;;-6.00;99.90;;;;;;4979139;28;20063;-54
2024/01/21 02:51:30;;;;;;;6.80;2.20;;;-6.00;99.90;;;;;;4953732;28;20134;-51
2024/01/21 02:53:57;;;;;;;5.18;1.98;;;-6.00;99.90;;;;;;4954158;28;20039;-52
2024/01/21 02:56:26;;;;;;;3.97;2.10;;;-6.00;99.90;;;;;;4969957;28;20046;-52
2024/01/21 02:58:53;;;;;;;10.38;2.72;;;-6.00;99.90;;;;;;4955446;28;20544;-52
2024/01/21 03:01:20;;;;;;;;;;;-6.00;99.90;;;;;;4962058;28;20051;-51
2024/01/21 03:03:47;;;;;;;5.50;2.40;;;-6.00;99.90;;;;;;4965659;28;19921;-52
2024/01/21 03:06:14;;;;;;;6.13;2.80;;;-6.00;99.90;;;;;;4966849;28;20051;-51
2024/01/21 03:08:41;;;;;;;5.82;2.05;;;-6.00;99.90;;;;;;4961906;28;20484;-52
2024/01/21 03:11:08;;;;;;;7.22;2.42;;;-6.00;99.90;;;;;;4962282;28;20043;-51
2024/01/21 03:13:35;;;;;;;9.43;2.20;;;-6.00;99.90;;;;;;4956560;28;20047;-51
2024/01/21 03:16:02;;;;;;;5.80;2.08;;;-6.00;99.90;;;;;;4955055;29;20057;-54
2024/01/21 03:18:29;;;;;;;6.07;2.22;;;-6.00;99.90;;;;;;4962055;28;20389;-51
2024/01/21 03:20:56;;;;;;;6.95;2.20;;;-6.00;99.90;;;;;;4954384;28;20059;-51
2024/01/21 03:23:23;;;;;;;3.30;1.58;;;-5.90;99.90;;;;;;4962190;28;20039;-51
2024/01/21 03:25:50;;;;;;;5.05;2.40;;;-6.00;99.90;;;;;;4968726;28;20105;-51
2024/01/21 03:28:17;;;;;;;5.05;2.60;;;-5.90;99.90;;;;;;4973025;28;20058;-51
2024/01/21 03:30:44;;;;;;;8.15;2.60;;;-5.90;99.90;;;;;;4964411;28;20051;-52
2024/01/21 03:33:11;;;;;;;5.55;2.22;;;-6.00;99.90;;;;;;4960593;28;20047;-52
2024/01/21 03:35:38;;;;;;;8.02;2.45;;;-5.90;99.90;;;;;;4960507;28;20054;-52
2024/01/21 03:38:04;;;;;;;4.20;1.90;;;-6.00;99.90;;;;;;4961803;28;20043;-51
2024/01/21 03:40:31;;;;;;;5.25;2.20;;;-6.00;99.90;;;;;;4954002;28;20043;-51
2024/01/21 03:42:58;;;;;;;4.70;2.47;;;-6.10;99.90;;;;;;4961614;28;20041;-52
2024/01/21 03:45:25;;;;;;;5.38;2.15;;;-6.10;99.90;;;;;;4968057;28;20045;-51
2024/01/21 03:47:52;;;;;;;6.80;2.60;;;-6.20;99.90;;;;;;4973140;28;20051;-51
2024/01/21 03:50:20;;;;;;;2.97;1.80;;;-6.10;99.90;;;;;;4955445;28;20083;-51
2024/01/21 03:52:47;;;;;;;5.95;2.40;;;-6.10;99.90;;;;;;4963425;28;20040;-52
2024/01/21 03:55:15;;;;;;;;;;;-6.10;99.90;;;;;;4961192;28;20058;-53
2024/01/21 03:57:41;;;;;;;9.30;3.10;;;-6.10;99.90;;;;;;4954218;28;19932;-52
2024/01/21 04:00:10;;;;;;;7.00;2.50;;;-6.10;99.90;;;;;;4968566;28;20094;-53
2024/01/21 04:02:40;;;;;;;5.95;2.33;;;-6.10;99.90;;;;;;4961074;28;20133;-52
2024/01/21 04:05:07;;;;;;;7.03;1.88;;;-6.10;99.90;;;;;;4958713;28;20138;-51
2024/01/21 04:07:34;;;;;;;6.28;2.33;;;-6.10;99.90;;;;;;4957187;28;20429;-52
2024/01/21 04:10:03;;;;;;;8.65;2.20;;;-6.10;99.90;;;;;;4955787;28;20047;-53
2024/01/21 04:12:29;;;;;;;8.02;2.20;;;-6.10;99.90;;;;;;4956389;28;20046;-51
2024/01/21 04:14:56;;;;;;;9.25;2.58;;;-6.10;99.90;;;;;;4953389;28;20102;-54
2024/01/21 04:17:23;;;;;;;7.05;2.47;;;-6.10;99.90;;;;;;4954325;28;20051;-53
2024/01/21 04:19:50;;;;;;;8.93;2.83;;;-6.00;99.90;;;;;;4954957;28;20079;-52
2024/01/21 04:22:18;;;;;;;9.52;3.55;;;-5.90;99.90;;;;;;4958751;28;20152;-52
2024/01/21 04:24:48;;;;;;;5.95;2.75;;;-5.90;99.90;;;;;;4964891;28;20054;-51
2024/01/21 04:27:15;;;;;;;7.88;2.40;;;-5.90;99.90;;;;;;4983922;28;20061;-54
2024/01/21 04:29:42;;;;;;;8.75;2.28;;;-5.80;99.90;;;;;;4957141;28;20172;-52
2024/01/21 04:32:09;;;;;;;3.15;1.38;;;-5.80;99.90;;;;;;4958609;28;20094;-55
2024/01/21 04:34:36;;;;;;;;;;;-5.80;99.90;;;;;;4962447;28;20122;-52
2024/01/21 04:37:03;;;;;;;5.53;2.60;;;-5.90;99.90;;;;;;4956276;28;20333;-51
2024/01/21 04:39:30;;;;;;;7.18;1.92;;;-5.80;99.90;;;;;;4968103;28;20051;-51
2024/01/21 04:41:57;;;;;;;;;;;-5.90;99.90;;;;;;4963353;28;20057;-53
2024/01/21 04:44:24;;;;;;;7.88;2.58;;;-6.00;99.90;;;;;;4965547;28;19933;-51
2024/01/21 04:46:51;;;;;;;;;;;-6.00;99.90;;;;;;4965714;28;20074;-55
2024/01/21 04:49:17;;;;;;;5.47;1.63;;;-6.00;99.90;;;;;;4966384;28;19922;-51
2024/01/21 04:51:44;;;;;;;;;;;-6.00;99.90;;;;;;4939769;28;20039;-51
2024/01/21 04:54:11;;;;;;;4.57;1.63;;;-6.00;99.90;;;;;;4968403;28;20383;-54
2024/01/21 04:56:39;;;;;;;4.57;2.00;;;-6.00;99.90;;;;;;4965193;28;20070;-52
2024/01/21 04:59:06;;;;;;;3.45;2.15;;;-5.90;99.90;;;;;;4953323;28;20046;-52
2024/01/21 05:01:33;;;;;;;6.03;2.08;;;-5.90;99.90;;;;;;4942558;28;20047;-51
2024/01/21 05:04:00;;;;;;;3.67;1.80;;;-5.90;99.90;;;;;;4957540;28;20515;-52
2024/01/21 05:06:27;;;;;;;4.65;2.03;;;-5.90;99.90;;;;;;4964592;28;20071;-52
2024/01/21 05:08:54;;;;;;;5.90;2.22;;;-5.80;99.90;;;;;;4958894;28;22243;-52
2024/01/21 05:11:21;;;;;;;5.90;2.10;;;-5.90;99.90;;;;;;4970078;28;20562;-52
2024/01/21 05:13:48;;;;;;;3.40;1.70;;;-5.90;99.90;;;;;;4977227;28;20043;-51
2024/01/21 05:16:18;;;;;;;5.32;2.08;;;-6.00;99.90;;;;;;4960143;28;20035;-51
2024/01/21 05:18:45;;;;;;;7.38;1.60;;;-6.00;99.90;;;;;;4952964;28;20122;-51
2024/01/21 05:21:21;;;;;;;4.80;2.38;;;-6.00;99.90;;;;;;4961178;28;20110;-54
2024/01/21 05:23:50;;;;;;;9.27;2.30;;;-6.00;99.90;;;;;;4967334;28;20041;-53
2024/01/21 05:26:17;;;;;;;5.20;2.60;;;-6.00;99.90;;;;;;4959971;28;20540;-51
2024/01/21 05:28:45;;;;;;;4.97;2.33;;;-6.10;99.90;;;;;;4944239;28;20094;-54
2024/01/21 05:31:12;;;;;;;5.55;2.28;;;-6.00;99.90;;;;;;4955707;28;20077;-51
2024/01/21 05:33:40;;;;;;;11.52;3.20;;;-6.00;99.90;;;;;;4960567;28;20043;-52
2024/01/21 05:36:09;;;;;;;6.28;2.10;;;-6.10;99.90;;;;;;4960405;28;20054;-51
2024/01/21 05:38:36;;;;;;;5.28;1.80;;;-6.10;99.90;;;;;;4972208;28;20103;-53
2024/01/21 05:41:03;;;;;;;5.35;2.22;;;-6.10;99.90;;;;;;4962513;28;20054;-52
2024/01/21 05:43:30;;;;;;;7.47;3.22;;;-6.00;99.90;;;;;;4964062;28;20103;-52
2024/01/21 05:45:56;;;;;;;7.78;4.00;;;-6.10;99.90;;;;;;4965809;28;20039;-51
2024/01/21 05:48:24;;;;;;;8.55;4.60;;;-6.10;99.90;;;;;;4974308;28;20489;-54
2024/01/21 05:50:51;;;;;;;6.15;3.65;;;-6.10;99.90;;;;;;4965665;28;20519;-52
2024/01/21 05:53:18;;;;;;;7.57;2.08;;;-6.00;99.90;;;;;;4968272;28;20039;-53
2024/01/21 05:55:45;;;;;;;7.15;2.20;;;-6.00;99.90;;;;;;4964679;28;20039;-51
2024/01/21 05:58:13;;;;;;;5.55;2.88;;;-6.00;99.90;;;;;;4974414;28;20136;-52
2024/01/21 06:00:40;;;;;;;5.60;3.00;;;-6.00;99.90;;;;;;4955915;28;20054;-52
2024/01/21 06:03:07;;;;;;;;;;;-6.00;99.90;;;;;;4966259;28;20058;-54
2024/01/21 06:05:34;;;;;;;6.35;2.22;;;-6.10;99.90;;;;;;4951855;29;19926;-52
2024/01/21 06:08:00;;;;;;;4.45;2.15;;;-6.00;99.90;;;;;;4954088;28;20397;-51
2024/01/21 06:10:27;;;;;;;6.82;2.70;;;-6.10;99.90;;;;;;4962909;28;20485;-54
2024/01/21 06:12:54;;;;;;;6.90;3.25;;;-6.00;99.90;;;;;;4972533;28;20046;-52
2024/01/21 06:15:21;;;;;;;5.47;2.25;;;-6.00;99.90;;;;;;4981287;28;20094;-52
2024/01/21 06:17:51;;;;;;;5.38;2.63;;;-6.00;99.90;;;;;;4966933;28;20400;-55
2024/01/21 06:20:18;;;;;;;4.38;2.45;;;-6.00;99.90;;;;;;4970118;28;20074;-51
2024/01/21 06:22:44;;;;;;;2.47;1.52;;;-6.00;99.90;;;;;;4962612;28;20053;-53
2024/01/21 06:25:14;;;;;;;8.25;2.78;;;-6.00;99.90;;;;;;4957669;28;20053;-52
2024/01/21 06:27:41;;;;;;;3.40;2.13;;;-6.00;99.90;;;;;;4975093;28;20118;-51
2024/01/21 06:30:15;;;;;;;4.90;2.38;;;-6.00;99.90;;;;;;4966198;28;20047;-52
2024/01/21 06:32:43;;;;;;;4.82;2.47;;;-6.00;99.90;;;;;;4960026;28;20445;-52
2024/01/21 06:35:26;;;;;;;6.13;2.80;;;-6.10;99.90;;;;;;4959763;28;20043;-52
2024/01/21 06:37:54;;;;;;;6.10;2.80;;;-6.00;99.90;;;;;;4966465;28;20043;-54
2024/01/21 06:40:20;;;;;;;4.75;2.15;;;-6.00;99.90;;;;;;4962483;28;20043;-51
2024/01/21 06:42:47;;;;;;;3.30;1.70;;;-6.00;99.90;;;;;;4973605;28;20066;-52
2024/01/21 06:45:14;;;;;;;;;;;-6.00;99.90;;;;;;4978815;28;20064;-51
2024/01/21 06:47:42;;;;;;;6.13;2.53;;;-6.00;99.90;;;;;;4979741;28;20302;-51
2024/01/21 06:50:10;;;;;;;6.32;2.22;;;-6.00;99.90;;;;;;4958530;28;20058;-51
2024/01/21 06:52:37;;;;;;;4.28;2.13;;;-6.00;99.90;;;;;;4960348;28;20055;-53
2024/01/21 06:55:06;;;;;;;6.57;2.10;;;-6.00;99.90;;;;;;4937829;28;20109;-52
2024/01/21 06:57:33;;;;;;;5.93;2.13;;;-6.10;99.90;;;;;;4963817;28;20046;-52
2024/01/21 07:00:01;;;;;;;5.65;2.58;;;-6.10;99.90;;;;;;4941253;28;20039;-51
2024/01/21 07:02:27;;;;;;;9.98;3.03;;;-6.00;99.90;;;;;;4948498;28;20121;-51
2024/01/21 07:04:54;;;;;;;7.25;2.88;;;-6.00;99.90;;;;;;4974488;28;20054;-54
2024/01/21 07:07:21;;;;;;;6.60;2.80;;;-6.00;99.90;;;;;;4957071;28;20047;-51
2024/01/21 07:09:48;;;;;;;7.57;2.50;;;-6.00;99.90;;;;;;4973539;28;20042;-52
2024/01/21 07:12:15;;;;;;;6.53;2.92;;;-5.90;99.90;;;;;;4964688;28;20039;-51
2024/01/21 07:14:42;;;;;;;9.10;4.05;;;-5.80;99.90;;;;;;4967589;28;20043;-54
2024/01/21 07:17:10;;;;;;;11.80;5.13;;;-5.70;99.90;;;;;;4980410;28;20097;-53
2024/01/21 07:19:36;;;;;;;13.23;4.40;;;-5.80;99.90;;;;;;4964926;28;20051;-51
2024/01/21 07:22:04;;;;;;;12.27;4.78;;;-5.80;99.90;;;;;;4957074;28;20039;-52
2024/01/21 07:24:31;;;;;;;16.15;6.10;;;-5.80;99.90;;;;;;4971991;28;20134;-52
2024/01/21 07:26:57;;;;;;;12.15;4.90;;;-5.80;99.90;;;;;;4965620;28;20135;-52
2024/01/21 07:29:24;;;;;;;12.05;4.50;;;-5.80;99.90;;;;;;4968867;28;20066;-52
2024/01/21 07:31:51;;;;;;;10.00;4.75;;;-5.90;99.90;;;;;;4969776;28;20038;-52
2024/01/21 07:34:18;;;;;;;8.48;3.88;;;-5.90;99.90;;;;;;4966867;28;20051;-54
2024/01/21 07:36:45;;;;;;;9.35;3.17;;;-5.90;99.90;;;;;;4958906;28;20043;-52
2024/01/21 07:39:12;;;;;;;9.95;3.83;;;-5.90;99.90;;;;;;4962741;28;20043;-51
2024/01/21 07:41:39;;;;;;;15.35;3.85;;;-5.80;99.90;;;;;;4954084;29;20039;-55
2024/01/21 07:44:06;;;;;;;11.00;4.07;;;-5.80;99.90;;;;;;4962648;28;20047;-55
2024/01/21 07:46:32;;;;;;;9.15;4.22;;;-5.90;99.90;;;;;;4969999;28;20035;-55
2024/01/21 07:48:59;;;;;;;14.80;6.30;;;-5.80;99.90;;;;;;4965373;28;20054;-51
2024/01/21 07:51:26;;;;;;;42.75;14.98;;;-5.80;99.90;;;;;;4970198;28;20501;-52
2024/01/21 07:53:53;;;;;;;25.38;11.18;;;-5.80;99.90;;;;;;4953879;28;20118;-51
2024/01/21 07:56:20;;;;;;;20.23;8.90;;;-5.70;99.90;;;;;;4963545;28;20050;-53
2024/01/21 07:58:46;;;;;;;18.70;10.02;;;-5.70;99.90;;;;;;4964829;28;20047;-54
2024/01/21 08:01:13;;;;;;;17.00;8.10;;;-5.70;99.90;;;;;;4967377;28;20047;-54
2024/01/21 08:03:40;;;;;;;;;;;-5.70;99.90;;;;;;4964423;28;20058;-51
2024/01/21 08:06:08;;;;;;;10.18;6.13;;;-5.70;99.90;;;;;;4951242;28;19922;-51
2024/01/21 08:08:35;;;;;;;13.27;6.40;;;-5.60;99.90;;;;;;4959503;28;20057;-51
2024/01/21 08:11:03;;;;;;;14.02;6.57;;;-5.60;99.90;;;;;;4947359;28;20055;-52
2024/01/21 08:13:30;;;;;;;17.73;7.95;;;-5.60;99.90;;;;;;4966194;28;20484;-53
2024/01/21 08:15:57;;;;;;;;;;;-5.60;99.90;;;;;;4959266;28;20041;-55
2024/01/21 08:18:24;;;;;;;19.38;8.32;;;-5.60;99.90;;;;;;4951441;28;19981;-52
2024/01/21 08:20:52;;;;;;;22.55;9.45;;;-5.60;99.90;;;;;;4956750;28;20047;-53
2024/01/21 08:23:19;;;;;;;11.50;5.50;;;-5.60;99.90;;;;;;4962950;28;20039;-53
2024/01/21 08:25:46;;;;;;;15.30;6.03;;;-5.50;99.90;;;;;;4972295;28;20049;-52
2024/01/21 08:28:13;;;;;;;;;;;-5.50;99.90;;;;;;4964664;28;20043;-52
2024/01/21 08:30:40;;;;;;;11.48;5.05;;;-5.60;99.90;;;;;;4972664;28;19922;-52
2024/01/21 08:33:07;;;;;;;17.05;6.13;;;-5.60;99.90;;;;;;4955636;28;20106;-52
2024/01/21 08:35:34;;;;;;;13.40;6.13;;;-5.50;99.90;;;;;;4964273;28;20067;-51
2024/01/21 08:38:01;;;;;;;17.33;6.43;;;-5.40;99.90;;;;;;4964188;28;20042;-52
2024/01/21 08:40:28;;;;;;;13.13;5.82;;;-5.20;99.90;;;;;;4969058;28;20499;-53
2024/01/21 08:42:55;;;;;;;11.13;4.63;;;-5.00;99.90;;;;;;4952663;28;20043;-54
2024/01/21 08:45:22;;;;;;;10.45;3.80;;;-4.90;99.90;;;;;;4969370;28;20452;-51
2024/01/21 08:47:49;;;;;;;11.75;5.25;;;-4.80;99.90;;;;;;4941459;28;20035;-51
2024/01/21 08:50:17;;;;;;;8.95;3.20;;;-4.60;99.90;;;;;;4963877;28;20046;-53
2024/01/21 08:52:43;;;;;;;13.23;4.65;;;-4.40;99.90;;;;;;4965323;28;20035;-51
2024/01/21 08:55:10;;;;;;;13.45;4.95;;;-4.40;99.90;;;;;;4952892;28;20054;-52
2024/01/21 08:57:37;;;;;;;14.45;4.47;;;-4.30;99.90;;;;;;4952741;28;20057;-52
2024/01/21 09:00:05;;;;;;;8.63;3.88;;;-4.10;99.90;;;;;;4967469;28;20452;-51
2024/01/21 09:02:32;;;;;;;8.90;3.88;;;-4.00;99.90;;;;;;4963447;28;20061;-52
2024/01/21 09:04:59;;;;;;;8.32;4.15;;;-3.90;99.90;;;;;;4957316;28;20043;-51
2024/01/21 09:07:26;;;;;;;;;;;-3.80;99.90;;;;;;4971237;28;20122;-52
2024/01/21 09:09:52;;;;;;;10.70;4.30;;;-3.70;99.90;;;;;;4964980;28;19929;-52
2024/01/21 09:12:19;;;;;;;7.43;3.65;;;-3.70;99.90;;;;;;4962790;28;20067;-52
2024/01/21 09:14:46;;;;;;;9.07;3.58;;;-3.60;99.90;;;;;;4967036;28;20095;-52
2024/01/21 09:17:13;;;;;;;9.20;3.15;;;-3.60;99.90;;;;;;4952985;28;20043;-51
2024/01/21 09:19:40;;;;;;;7.50;3.78;;;-3.60;99.90;;;;;;4980146;28;20043;-57
2024/01/21 09:22:07;;;;;;;10.07;4.38;;;-3.60;99.90;;;;;;4955750;28;20050;-53
2024/01/21 09:24:35;;;;;;;10.32;4.10;;;-3.60;99.90;;;;;;4967317;28;20043;-53
2024/01/21 09:27:01;;;;;;;14.18;4.88;;;-3.60;99.90;;;;;;4966041;28;20075;-51
2024/01/21 09:29:28;;;;;;;11.07;3.60;;;-3.60;99.90;;;;;;4974316;28;20049;-56
2024/01/21 09:31:56;;;;;;;11.90;3.97;;;-3.60;99.90;;;;;;4961356;28;20049;-51
2024/01/21 09:34:23;;;;;;;6.43;3.42;;;-3.50;99.90;;;;;;4972012;28;20041;-52
2024/01/21 09:36:51;;;;;;;8.65;3.80;;;-3.50;99.90;;;;;;4962785;28;20054;-52
2024/01/21 09:39:19;;;;;;;10.02;3.58;;;-3.50;99.90;;;;;;4962732;28;20142;-52
2024/01/21 09:41:50;;;;;;;12.90;4.97;;;-3.40;99.90;;;;;;4961490;28;20043;-55
2024/01/21 09:44:25;;;;;;;16.42;5.85;;;-3.30;99.90;;;;;;4966969;28;20067;-53
2024/01/21 09:46:54;;;;;;;13.90;5.28;;;-3.20;99.90;;;;;;4963854;28;20059;-52
2024/01/21 09:49:21;;;;;;;30.58;5.15;;;-3.20;99.90;;;;;;4959343;28;20113;-52
2024/01/21 09:51:52;;;;;;;13.65;5.57;;;-3.10;99.90;;;;;;4969263;28;20416;-54
2024/01/21 09:54:20;;;;;;;15.73;5.47;;;-3.00;99.90;;;;;;4975250;28;20488;-52
2024/01/21 09:56:47;;;;;;;10.52;5.28;;;-2.90;99.90;;;;;;4972344;28;20053;-52
2024/01/21 09:59:15;;;;;;;;;;;-2.80;99.90;;;;;;4973484;28;20492;-52
2024/01/21 10:01:42;;;;;;;12.93;4.38;;;-2.70;99.90;;;;;;4965695;28;20012;-53
2024/01/21 10:04:10;;;;;;;;;;;-2.60;99.90;;;;;;4966338;28;20077;-53
2024/01/21 10:06:37;;;;;;;13.73;4.00;;;-2.50;99.90;;;;;;4972276;28;20290;-52
2024/01/21 10:09:14;;;;;;;;;;;-2.30;99.90;;;;;;4958119;28;20476;-54
2024/01/21 10:11:41;;;;;;;11.75;4.13;;;-2.20;99.90;;;;;;4967898;28;19933;-52
2024/01/21 10:14:08;;;;;;;14.98;5.03;;;-2.00;99.90;;;;;;4956885;28;20126;-53
2024/01/21 10:16:41;;;;;;;15.63;3.40;;;-1.90;99.90;;;;;;4963694;28;20129;-53
2024/01/21 10:19:12;;;;;;;12.65;4.18;;;-1.70;99.90;;;;;;4979964;28;20050;-52
2024/01/21 10:21:39;;;;;;;14.80;3.92;;;-1.70;99.90;;;;;;4962856;28;20039;-55
2024/01/21 10:24:10;;;;;;;15.00;3.47;;;-1.70;99.90;;;;;;4962092;28;20113;-53
2024/01/21 10:26:41;;;;;;;10.23;3.30;;;-1.50;99.90;;;;;;4972348;28;20057;-53
2024/01/21 10:29:08;;;;;;;10.05;3.08;;;-1.40;99.90;;;;;;4953452;28;20054;-53
2024/01/21 10:31:34;;;;;;;8.45;2.80;;;-1.40;99.90;;;;;;4952694;28;20445;-52
2024/01/21 10:34:02;;;;;;;6.07;3.28;;;-1.30;99.90;;;;;;4966210;28;20690;-54
2024/01/21 10:36:33;;;;;;;17.02;3.70;;;-1.20;99.90;;;;;;4964270;28;20047;-53
2024/01/21 10:39:08;;;;;;;14.50;5.38;;;-1.10;99.90;;;;;;4955487;28;20043;-52
2024/01/21 10:41:36;;;;;;;17.73;4.63;;;-1.00;99.90;;;;;;4953580;28;20047;-53
2024/01/21 10:44:06;;;;;;;17.58;6.45;;;-0.90;99.90;;;;;;4961189;28;20061;-52
2024/01/21 10:46:35;;;;;;;11.57;5.18;;;-0.80;99.90;;;;;;4973329;28;20478;-51
2024/01/21 10:49:03;;;;;;;9.27;3.90;;;-0.60;99.90;;;;;;4979521;28;20397;-52
2024/01/21 10:51:30;;;;;;;8.23;2.88;;;-0.50;99.90;;;;;;4980936;28;20073;-54
2024/01/21 10:54:00;;;;;;;;;;;-0.50;99.90;;;;;;4961668;28;20035;-55
2024/01/21 10:56:27;;;;;;;9.35;3.03;;;-0.40;99.90;;;;;;4956983;28;19972;-55
2024/01/21 10:58:54;;;;;;;10.63;3.50;;;-0.40;99.90;;;;;;4959451;28;20043;-57
2024/01/21 11:01:23;;;;;;;;;;;-0.60;99.90;;;;;;4967152;28;20113;-54
2024/01/21 11:04:02;;;;;;;10.52;3.10;;;-0.40;99.90;;;;;;4968769;28;19922;-54
2024/01/21 11:06:31;;;;;;;11.45;4.35;;;-0.30;99.90;;;;;;4988527;28;20046;-55
2024/01/21 11:09:01;;;;;;;11.60;3.83;;;-0.10;99.90;;;;;;4966226;28;20519;-53
2024/01/21 11:11:28;;;;;;;10.45;3.75;;;0.00;99.90;;;;;;4961620;28;20126;-55
2024/01/21 11:13:56;;;;;;;14.32;4.60;;;0.00;99.90;;;;;;4954456;28;20046;-53
2024/01/21 11:16:25;;;;;;;18.90;6.75;;;0.00;99.90;;;;;;4987642;28;20045;-52
2024/01/21 11:18:53;;;;;;;17.13;6.07;;;0.10;99.90;;;;;;4993375;28;20122;-52
2024/01/21 11:21:20;;;;;;;13.38;6.18;;;0.20;99.90;;;;;;4971200;28;20047;-56
2024/01/21 11:24:03;;;;;;;;;;;0.30;99.90;;;;;;4977278;28;20102;-51
2024/01/21 11:26:31;;;;;;;13.18;4.40;;;0.40;99.90;;;;;;4959288;28;20013;-52
2024/01/21 11:28:59;;;;;;;7.78;3.88;;;0.30;99.90;;;;;;4972351;28;20447;-52
2024/01/21 11:31:31;;;;;;;16.02;4.53;;;0.40;99.90;;;;;;4971651;28;20058;-54
2024/01/21 11:34:02;;;;;;;9.82;4.00;;;0.50;99.90;;;;;;4975251;28;20070;-54
2024/01/21 11:36:31;;;;;;;13.35;3.58;;;0.60;99.90;;;;;;4952386;28;20050;-52
2024/01/21 11:38:59;;;;;;;22.02;3.90;;;0.70;99.90;;;;;;4987760;28;20051;-52
2024/01/21 11:41:37;;;;;;;25.33;3.97;;;0.90;99.90;;;;;;4981854;28;20046;-54
2024/01/21 11:44:21;;;;;;;10.03;3.00;;;1.00;99.90;;;;;;4982211;28;20062;-54
2024/01/21 11:47:02;;;;;;;6.10;2.63;;;1.00;99.90;;;;;;4974155;28;20365;-52
2024/01/21 11:49:30;;;;;;;15.27;4.22;;;1.00;99.90;;;;;;4980332;28;20305;-56
2024/01/21 11:52:08;;;;;;;8.95;3.10;;;1.00;99.90;;;;;;4964378;28;20058;-56
2024/01/21 11:54:36;;;;;;;9.38;4.15;;;1.10;99.90;;;;;;4972583;28;20446;-56
2024/01/21 11:57:06;;;;;;;15.93;5.22;;;1.20;99.90;;;;;;4972364;28;20075;-52
2024/01/21 11:59:34;;;;;;;31.17;4.28;;;1.40;99.90;;;;;;4974658;28;20043;-54
2024/01/21 12:02:02;;;;;;;7.28;2.88;;;1.60;99.90;;;;;;4971995;28;20465;-53
2024/01/21 12:04:29;;;;;;;;;;;1.60;99.50;;;;;;4959188;28;20043;-51
2024/01/21 12:06:57;;;;;;;34.17;4.40;;;1.60;99.60;;;;;;4957744;28;19922;-53
2024/01/21 12:09:25;;;;;;;31.63;3.90;;;1.60;99.50;;;;;;4964997;28;20049;-54
2024/01/21 12:11:52;;;;;;;17.08;2.85;;;1.60;99.90;;;;;;4966085;28;20503;-53
2024/01/21 12:14:21;;;;;;;28.98;5.13;;;1.60;99.30;;;;;;4960019;28;20056;-57
2024/01/21 12:16:53;;;;;;;28.50;4.68;;;1.60;99.20;;;;;;4952010;28;20043;-51
2024/01/21 12:19:23;;;;;;;41.55;4.20;;;1.80;99.60;;;;;;4972488;28;20051;-56
2024/01/21 12:21:51;;;;;;;27.25;3.40;;;1.80;99.90;;;;;;4979151;28;20030;-52
2024/01/21 12:24:22;;;;;;;21.27;3.22;;;1.90;99.90;;;;;;4968296;28;20043;-55
2024/01/21 12:26:49;;;;;;;38.83;5.22;;;1.90;99.90;;;;;;4950987;28;20054;-56
2024/01/21 12:29:19;;;;;;;18.15;4.95;;;1.90;99.70;;;;;;4970867;28;20052;-53
2024/01/21 12:31:46;;;;;;;8.77;3.72;;;2.10;99.90;;;;;;4972090;28;20038;-52
2024/01/21 12:34:13;;;;;;;13.43;4.22;;;2.00;98.80;;;;;;4966898;28;20414;-52
2024/01/21 12:36:44;;;;;;;12.25;4.50;;;2.00;99.00;;;;;;4970420;28;20539;-51
2024/01/21 12:39:13;;;;;;;10.43;4.90;;;1.90;98.80;;;;;;4972131;28;20145;-52
2024/01/21 12:41:40;;;;;;;15.25;4.25;;;2.00;99.90;;;;;;4964323;28;20442;-51
2024/01/21 12:44:07;;;;;;;9.10;3.78;;;2.00;99.00;;;;;;4964784;28;20117;-52
2024/01/21 12:46:34;;;;;;;12.05;4.88;;;1.90;99.80;;;;;;4958128;28;20093;-51
2024/01/21 12:49:01;;;;;;;8.35;4.72;;;1.90;98.80;;;;;;4951254;28;20473;-53
2024/01/21 12:51:31;;;;;;;12.35;4.43;;;1.80;99.20;;;;;;4971208;28;20039;-52
2024/01/21 12:53:58;;;;;;;16.02;5.30;;;1.90;99.40;;;;;;4966494;28;20105;-52
2024/01/21 12:56:24;;;;;;;15.88;4.63;;;2.00;98.80;;;;;;4968126;28;20381;-52